createdAt,value
2018-04-09T00:00:15.400Z,61.37
2018-04-09T00:01:15.423Z,61.27
2018-04-09T00:02:15.449Z,61.94
2018-04-09T00:03:15.471Z,61.85
2018-04-09T00:04:15.491Z,62.13
2018-04-09T00:05:15.514Z,61.75
2018-04-09T00:06:15.537Z,61.85
2018-04-09T00:07:15.562Z,62.39
2018-04-09T00:08:15.583Z,62.59
2018-04-09T00:09:15.608Z,63.06
2018-04-09T00:10:15.627Z,62.96
2018-04-09T00:11:15.651Z,63.06
2018-04-09T00:12:15.675Z,62.49
2018-04-09T00:13:15.695Z,63.16
2018-04-09T00:14:15.719Z,63.16
2018-04-09T00:15:15.744Z,63.83
2018-04-09T00:16:15.768Z,63.83
2018-04-09T00:17:15.789Z,63.45
2018-04-09T00:18:15.812Z,63.92
2018-04-09T00:19:15.834Z,64.69
2018-04-09T00:20:15.857Z,64.31
2018-04-09T00:21:15.880Z,64.40
2018-04-09T00:22:15.902Z,64.40
2018-04-09T00:23:15.926Z,64.69
2018-04-09T00:24:15.948Z,64.79
2018-04-09T00:25:15.971Z,65.08
2018-04-09T00:26:15.993Z,65.46
2018-04-09T00:27:16.017Z,65.94
2018-04-09T00:28:16.040Z,66.51
2018-04-09T00:29:16.062Z,66.42
2018-04-09T00:30:16.084Z,66.89
2018-04-09T00:31:16.108Z,66.99
2018-04-09T00:32:16.133Z,67.54
2018-04-09T00:33:16.154Z,67.34
2018-04-09T00:34:16.182Z,67.44
2018-04-09T00:35:16.199Z,67.82
2018-04-09T00:36:16.222Z,68.11
2018-04-09T00:37:16.244Z,68.59
2018-04-09T00:38:16.267Z,69.07
2018-04-09T00:39:16.290Z,69.45
2018-04-09T00:40:16.314Z,69.45
2018-04-09T00:41:16.334Z,70.12
2018-04-09T00:42:16.358Z,70.21
2018-04-09T00:43:16.381Z,70.79
2018-04-09T00:44:16.403Z,71.66
2018-04-09T00:45:16.425Z,71.94
2018-04-09T00:46:16.449Z,72.23
2018-04-09T00:47:16.471Z,72.32
2018-04-09T00:48:16.543Z,72.13
2018-04-09T00:49:16.515Z,72.03
2018-04-09T00:50:16.545Z,72.80
2018-04-09T00:51:16.568Z,73.63
2018-04-09T00:52:16.584Z,74.58
2018-04-09T00:53:16.606Z,74.97
2018-04-09T00:54:16.630Z,76.02
2018-04-09T00:55:16.652Z,76.79
2018-04-09T00:56:16.676Z,77.08
2018-04-09T00:57:16.698Z,77.36
2018-04-09T00:58:16.720Z,77.75
2018-04-09T00:59:16.742Z,78.89
2018-04-09T01:00:16.765Z,78.76
2018-04-09T01:01:16.841Z,79.62
2018-04-09T01:02:16.809Z,80.14
2018-04-09T01:03:16.832Z,80.10
2018-04-09T01:04:16.854Z,80.58
2018-04-09T01:05:16.876Z,81.10
2018-04-09T01:06:16.899Z,81.00
2018-04-09T01:07:16.921Z,80.43
2018-04-09T01:08:16.944Z,80.71
2018-04-09T01:09:16.966Z,81.10
2018-04-09T01:10:16.989Z,81.20
2018-04-09T01:11:17.012Z,81.29
2018-04-09T01:12:17.034Z,81.38
2018-04-09T01:13:17.056Z,81.00
2018-04-09T01:14:17.078Z,81.67
2018-04-09T01:15:17.101Z,82.24
2018-04-09T01:16:17.123Z,81.96
2018-04-09T01:17:17.144Z,82.15
2018-04-09T01:18:17.167Z,82.43
2018-04-09T01:19:17.191Z,82.24
2018-04-09T01:20:17.212Z,82.34
2018-04-09T01:21:17.233Z,82.53
2018-04-09T01:22:17.256Z,82.82
2018-04-09T01:23:17.278Z,83.11
2018-04-09T01:24:17.301Z,83.68
2018-04-09T01:25:17.321Z,83.87
2018-04-09T01:26:17.347Z,83.30
2018-04-09T01:27:17.365Z,84.16
2018-04-09T01:28:17.393Z,84.16
2018-04-09T01:29:17.410Z,84.06
2018-04-09T01:30:17.432Z,84.35
2018-04-09T01:31:17.453Z,84.83
2018-04-09T01:32:17.480Z,84.45
2018-04-09T01:33:17.500Z,85.02
2018-04-09T01:34:17.522Z,85.31
2018-04-09T01:35:17.542Z,85.21
2018-04-09T01:36:17.566Z,85.55
2018-04-09T01:37:17.586Z,86.08
2018-04-09T01:38:17.608Z,85.55
2018-04-09T01:39:17.631Z,85.75
2018-04-09T01:40:17.656Z,86.32
2018-04-09T01:41:17.674Z,86.32
2018-04-09T01:42:17.696Z,86.70
2018-04-09T01:43:17.719Z,86.99
2018-04-09T01:44:17.741Z,86.70
2018-04-09T01:45:17.764Z,86.90
2018-04-09T01:46:17.784Z,87.27
2018-04-09T01:47:17.810Z,87.47
2018-04-09T01:48:17.829Z,87.47
2018-04-09T01:49:17.851Z,87.37
2018-04-09T01:50:17.873Z,87.56
2018-04-09T01:51:17.895Z,88.04
2018-04-09T01:52:17.918Z,88.13
2018-04-09T01:53:17.938Z,88.04
2018-04-09T01:54:17.963Z,88.33
2018-04-09T01:55:17.985Z,88.23
2018-04-09T01:56:18.005Z,88.52
2018-04-09T02:12:45.834Z,90.10
2018-04-09T02:13:45.859Z,90.67
2018-04-09T02:14:45.877Z,90.67
2018-04-09T02:15:45.899Z,90.96
2018-04-09T02:16:45.922Z,90.58
2018-04-09T02:17:45.944Z,90.48
2018-04-09T02:18:45.965Z,90.39
2018-04-09T02:19:45.986Z,91.25
2018-04-09T02:20:46.007Z,90.96
2018-04-09T02:21:46.030Z,91.06
2018-04-09T02:22:46.052Z,91.25
2018-04-09T02:23:46.072Z,91.63
2018-04-09T02:24:46.094Z,91.83
2018-04-09T02:25:46.116Z,90.96
2018-04-09T02:26:46.139Z,91.63
2018-04-09T02:27:46.160Z,91.53
2018-04-09T02:28:46.182Z,91.53
2018-04-09T02:29:46.203Z,91.92
2018-04-09T02:30:46.226Z,91.92
2018-04-09T02:31:46.247Z,92.16
2018-04-09T02:32:46.269Z,91.92
2018-04-09T02:33:46.291Z,92.35
2018-04-09T02:34:46.314Z,92.21
2018-04-09T02:35:46.336Z,92.30
2018-04-09T02:36:46.360Z,92.35
2018-04-09T02:37:46.376Z,92.25
2018-04-09T02:38:46.398Z,92.35
2018-04-09T02:39:46.419Z,92.45
2018-04-09T02:40:46.442Z,92.83
2018-04-09T02:41:46.463Z,92.45
2018-04-09T02:42:46.486Z,92.54
2018-04-09T02:43:46.507Z,92.74
2018-04-09T02:44:46.533Z,92.64
2018-04-09T02:45:46.551Z,92.83
2018-04-09T02:46:46.574Z,92.93
2018-04-09T02:47:46.601Z,92.74
2018-04-09T02:48:46.615Z,92.83
2018-04-09T02:49:46.636Z,93.31
2018-04-09T02:50:46.658Z,93.50
2018-04-09T02:51:46.680Z,93.21
2018-04-09T02:52:46.700Z,93.21
2018-04-09T02:53:46.735Z,93.21
2018-04-09T02:54:46.812Z,93.40
2018-04-09T02:55:46.768Z,93.60
2018-04-09T02:56:46.792Z,93.60
2018-04-09T02:57:46.810Z,93.12
2018-04-09T02:58:46.830Z,93.50
2018-04-09T02:59:46.851Z,93.45
2018-04-09T03:00:46.874Z,93.55
2018-04-09T03:01:46.897Z,93.69
2018-04-09T03:02:46.918Z,93.79
2018-04-09T03:03:46.937Z,93.98
2018-04-09T03:04:46.962Z,93.88
2018-04-09T03:05:46.981Z,93.84
2018-04-09T03:06:47.002Z,93.84
2018-04-09T03:07:47.023Z,93.79
2018-04-09T03:08:47.044Z,93.74
2018-04-09T03:09:47.067Z,93.74
2018-04-09T03:10:47.087Z,94.17
2018-04-09T03:11:47.109Z,93.93
2018-04-09T03:12:47.130Z,93.93
2018-04-09T03:13:47.150Z,94.31
2018-04-09T03:14:47.174Z,93.74
2018-04-09T03:15:47.194Z,94.41
2018-04-09T03:16:47.214Z,93.93
2018-04-09T03:17:47.236Z,94.12
2018-04-09T03:18:47.259Z,94.12
2018-04-09T03:19:47.279Z,94.31
2018-04-09T03:20:47.299Z,94.12
2018-04-09T03:21:47.321Z,94.51
2018-04-09T03:22:47.343Z,94.51
2018-04-09T03:23:47.363Z,94.31
2018-04-09T03:24:47.385Z,94.22
2018-04-09T03:25:47.412Z,94.31
2018-04-09T03:26:47.428Z,94.22
2018-04-09T03:27:47.449Z,94.27
2018-04-09T03:28:47.470Z,94.27
2018-04-09T03:29:47.492Z,94.27
2018-04-09T03:30:47.514Z,94.84
2018-04-09T03:31:47.535Z,94.46
2018-04-09T03:32:47.558Z,94.46
2018-04-09T03:33:47.576Z,94.55
2018-04-09T03:34:47.598Z,94.46
2018-04-09T03:35:47.619Z,94.65
2018-04-09T03:36:47.640Z,94.93
2018-04-09T03:37:47.662Z,94.46
2018-04-09T03:38:47.685Z,94.65
2018-04-09T03:39:47.704Z,94.41
2018-04-09T03:40:47.725Z,94.51
2018-04-09T03:41:47.746Z,94.89
2018-04-09T03:42:47.768Z,94.60
2018-04-09T03:43:47.791Z,94.79
2018-04-09T03:44:47.809Z,94.60
2018-04-09T03:45:47.831Z,94.41
2018-04-09T03:46:47.854Z,94.70
2018-04-09T03:47:47.874Z,94.51
2018-04-09T03:48:47.895Z,94.55
2018-04-09T03:49:47.915Z,94.51
2018-04-09T03:50:47.936Z,94.51
2018-04-09T03:51:47.958Z,94.55
2018-04-09T03:52:47.984Z,94.79
2018-04-09T03:53:48.000Z,94.51
2018-04-09T03:54:48.020Z,94.70
2018-04-09T03:55:48.040Z,94.79
2018-04-09T03:56:48.062Z,94.79
2018-04-09T03:57:48.082Z,94.51
2018-04-09T03:58:48.105Z,94.51
2018-04-09T03:59:48.124Z,94.60
2018-04-09T04:00:48.145Z,94.60
2018-04-09T04:01:48.166Z,94.55
2018-04-09T04:02:48.186Z,94.74
2018-04-09T04:03:48.208Z,94.84
2018-04-09T04:04:48.228Z,94.84
2018-04-09T04:05:48.250Z,94.74
2018-04-09T04:06:48.271Z,95.41
2018-04-09T04:07:48.340Z,94.74
2018-04-09T04:08:48.312Z,95.32
2018-04-09T04:09:48.334Z,95.32
2018-04-09T04:10:48.354Z,94.74
2018-04-09T04:11:48.374Z,94.36
2018-04-09T04:12:48.395Z,95.32
2018-04-09T04:13:48.417Z,95.32
2018-04-09T04:14:48.438Z,95.32
2018-04-09T04:15:48.458Z,95.61
2018-04-09T04:16:48.480Z,95.22
2018-04-09T04:17:48.500Z,95.22
2018-04-09T04:18:48.525Z,95.32
2018-04-09T04:19:48.542Z,95.32
2018-04-09T04:20:48.564Z,95.22
2018-04-09T04:21:48.584Z,95.22
2018-04-09T04:22:48.606Z,95.32
2018-04-09T04:23:48.625Z,95.22
2018-04-09T04:24:48.646Z,95.22
2018-04-09T04:25:48.667Z,95.12
2018-04-09T04:26:48.688Z,95.32
2018-04-09T04:27:48.709Z,94.74
2018-04-09T04:28:48.731Z,95.03
2018-04-09T04:29:48.751Z,95.32
2018-04-09T04:30:48.778Z,95.12
2018-04-09T04:31:48.793Z,94.74
2018-04-09T04:32:48.813Z,94.84
2018-04-09T04:33:48.834Z,94.93
2018-04-09T04:34:48.855Z,94.74
2018-04-09T04:35:48.874Z,94.60
2018-04-09T04:36:48.897Z,94.79
2018-04-09T04:37:48.917Z,94.41
2018-04-09T04:38:48.938Z,94.60
2018-04-09T04:39:48.958Z,94.51
2018-04-09T04:40:48.981Z,94.41
2018-04-09T04:41:49.001Z,94.41
2018-04-09T04:42:49.021Z,94.46
2018-04-09T04:43:49.043Z,94.84
2018-04-09T04:44:49.062Z,94.46
2018-04-09T04:45:49.083Z,94.36
2018-04-09T04:46:49.104Z,94.36
2018-04-09T04:47:49.124Z,94.46
2018-04-09T04:48:49.144Z,94.79
2018-04-09T04:49:49.166Z,94.46
2018-04-09T04:50:49.187Z,94.46
2018-04-09T04:51:49.206Z,94.46
2018-04-09T04:52:49.229Z,94.70
2018-04-09T04:53:49.248Z,94.55
2018-04-09T04:54:49.269Z,94.55
2018-04-09T04:55:49.289Z,94.79
2018-04-09T04:56:49.311Z,94.84
2018-04-09T04:57:49.331Z,94.65
2018-04-09T04:58:49.352Z,94.84
2018-04-09T04:59:49.372Z,94.74
2018-04-09T05:00:49.393Z,94.55
2018-04-09T05:01:49.413Z,94.51
2018-04-09T05:02:49.433Z,94.65
2018-04-09T05:03:49.452Z,94.60
2018-04-09T05:04:49.474Z,94.79
2018-04-09T05:05:49.497Z,95.08
2018-04-09T05:06:49.516Z,95.12
2018-04-09T05:07:49.536Z,94.98
2018-04-09T05:08:49.558Z,95.27
2018-04-09T05:09:49.579Z,95.17
2018-04-09T05:10:49.601Z,94.79
2018-04-09T05:11:49.662Z,95.17
2018-04-09T05:12:49.640Z,95.17
2018-04-09T05:13:49.661Z,95.17
2018-04-09T05:14:49.682Z,94.79
2018-04-09T05:15:49.702Z,94.89
2018-04-09T05:16:49.724Z,94.79
2018-04-09T05:17:49.744Z,95.08
2018-04-09T05:18:49.764Z,94.60
2018-04-09T05:19:49.786Z,94.89
2018-04-09T05:20:49.805Z,95.56
2018-04-09T05:21:49.827Z,95.27
2018-04-09T05:22:49.847Z,94.60
2018-04-09T05:23:49.867Z,95.17
2018-04-09T05:24:49.888Z,95.27
2018-04-09T05:25:49.909Z,95.56
2018-04-09T05:26:49.931Z,95.27
2018-04-09T05:27:49.950Z,94.98
2018-04-09T05:28:49.971Z,95.27
2018-04-09T05:29:49.992Z,95.27
2018-04-09T05:30:50.013Z,95.27
2018-04-09T05:31:50.033Z,95.75
2018-04-09T05:32:50.053Z,95.36
2018-04-09T05:33:50.073Z,95.27
2018-04-09T05:34:50.095Z,94.89
2018-04-09T05:35:50.115Z,95.08
2018-04-09T05:36:50.141Z,95.17
2018-04-09T05:37:50.157Z,94.98
2018-04-09T05:38:50.221Z,95.36
2018-04-09T05:39:50.198Z,95.17
2018-04-09T05:40:50.220Z,95.17
2018-04-09T05:41:50.240Z,95.46
2018-04-09T05:42:50.261Z,94.98
2018-04-09T05:43:50.311Z,95.56
2018-04-09T05:44:50.302Z,95.46
2018-04-09T05:45:50.324Z,95.56
2018-04-09T05:46:50.347Z,95.56
2018-04-09T05:47:50.370Z,95.41
2018-04-09T05:48:50.385Z,95.41
2018-04-09T05:49:50.405Z,95.70
2018-04-09T05:50:50.427Z,95.27
2018-04-09T05:51:50.451Z,95.75
2018-04-09T05:52:50.469Z,95.17
2018-04-09T05:53:50.491Z,95.17
2018-04-09T05:54:50.511Z,95.36
2018-04-09T05:55:50.530Z,95.27
2018-04-09T05:56:50.551Z,95.46
2018-04-09T05:57:50.573Z,95.46
2018-04-09T05:58:50.594Z,95.56
2018-04-09T05:59:50.613Z,95.36
2018-04-09T06:00:50.634Z,95.65
2018-04-09T06:01:50.655Z,95.46
2018-04-09T06:02:50.675Z,95.36
2018-04-09T06:03:50.696Z,95.56
2018-04-09T06:04:50.717Z,95.56
2018-04-09T06:05:50.740Z,95.46
2018-04-09T06:06:50.761Z,95.70
2018-04-09T06:07:50.779Z,95.51
2018-04-09T06:08:50.801Z,95.70
2018-04-09T06:09:50.820Z,95.41
2018-04-09T06:10:50.841Z,95.51
2018-04-09T06:11:50.862Z,95.32
2018-04-09T06:12:50.884Z,95.51
2018-04-09T06:13:50.902Z,95.98
2018-04-09T06:14:50.924Z,96.27
2018-04-09T06:15:50.942Z,95.79
2018-04-09T06:16:50.966Z,96.27
2018-04-09T06:17:50.986Z,95.70
2018-04-09T06:18:51.007Z,95.89
2018-04-09T06:19:51.027Z,95.89
2018-04-09T06:20:51.048Z,95.89
2018-04-09T06:21:51.070Z,96.37
2018-04-09T06:22:51.090Z,96.08
2018-04-09T06:23:51.109Z,95.61
2018-04-09T06:24:51.131Z,96.37
2018-04-09T06:25:51.152Z,96.42
2018-04-09T06:26:51.174Z,96.32
2018-04-09T06:27:51.193Z,96.22
2018-04-09T06:28:51.215Z,96.03
2018-04-09T06:29:51.236Z,96.13
2018-04-09T06:30:51.258Z,96.61
2018-04-09T06:31:51.323Z,96.51
2018-04-09T06:32:51.349Z,96.13
2018-04-09T06:33:51.321Z,96.32
2018-04-09T06:34:51.341Z,96.22
2018-04-09T06:35:51.361Z,96.66
2018-04-09T06:36:51.382Z,96.37
2018-04-09T06:37:51.404Z,96.66
2018-04-09T06:38:51.426Z,96.47
2018-04-09T06:39:51.446Z,96.61
2018-04-09T06:40:51.467Z,96.22
2018-04-09T06:41:51.489Z,96.70
2018-04-09T06:42:51.511Z,96.61
2018-04-09T06:43:51.535Z,96.61
2018-04-09T06:44:51.553Z,97.08
2018-04-09T06:45:51.573Z,96.70
2018-04-09T06:46:51.595Z,96.42
2018-04-09T06:47:51.615Z,96.89
2018-04-09T06:48:51.638Z,96.89
2018-04-09T06:49:51.662Z,97.04
2018-04-09T06:50:51.680Z,96.84
2018-04-09T06:51:51.701Z,97.23
2018-04-09T06:52:51.723Z,97.23
2018-04-09T06:53:51.745Z,96.94
2018-04-09T06:54:51.767Z,97.04
2018-04-09T06:55:51.788Z,97.04
2018-04-09T06:56:51.809Z,97.23
2018-04-09T06:57:51.850Z,97.04
2018-04-09T06:58:51.854Z,97.04
2018-04-09T06:59:51.874Z,96.84
2018-04-09T07:00:51.899Z,97.13
2018-04-09T07:01:51.919Z,97.13
2018-04-09T07:02:51.940Z,97.04
2018-04-09T07:03:51.960Z,97.33
2018-04-09T07:04:51.983Z,97.04
2018-04-09T07:05:52.005Z,97.04
2018-04-09T07:06:52.026Z,97.33
2018-04-09T07:07:52.047Z,96.94
2018-04-09T07:08:52.070Z,97.13
2018-04-09T07:09:52.096Z,97.13
2018-04-09T07:10:52.114Z,97.23
2018-04-09T07:11:52.134Z,97.52
2018-04-09T07:12:52.156Z,97.52
2018-04-09T07:13:52.187Z,97.42
2018-04-09T07:14:52.200Z,97.47
2018-04-09T07:15:52.243Z,97.85
2018-04-09T07:16:52.243Z,97.08
2018-04-09T07:17:52.267Z,97.47
2018-04-09T07:18:52.287Z,97.08
2018-04-09T07:19:52.308Z,97.28
2018-04-09T07:20:52.330Z,97.18
2018-04-09T07:21:52.353Z,97.33
2018-04-09T07:22:52.374Z,97.61
2018-04-09T07:23:52.396Z,97.23
2018-04-09T07:24:52.446Z,97.23
2018-04-09T07:25:52.442Z,97.13
2018-04-09T07:26:52.463Z,97.33
2018-04-09T07:27:52.483Z,97.23
2018-04-09T07:28:52.507Z,96.84
2018-04-09T07:29:52.528Z,96.75
2018-04-09T07:30:52.551Z,96.75
2018-04-09T07:31:52.573Z,96.75
2018-04-09T07:32:52.595Z,97.18
2018-04-09T07:33:52.617Z,96.99
2018-04-09T07:34:52.640Z,97.09
2018-04-09T07:35:52.662Z,96.94
2018-04-09T07:36:52.688Z,97.33
2018-04-09T07:37:52.708Z,97.42
2018-04-09T07:38:52.729Z,97.61
2018-04-09T07:39:52.753Z,97.52
2018-04-09T07:40:52.775Z,97.80
2018-04-09T07:41:52.796Z,97.71
2018-04-09T07:42:52.819Z,97.85
2018-04-09T07:43:52.844Z,97.75
2018-04-09T07:44:52.863Z,97.56
2018-04-09T07:45:52.889Z,97.56
2018-04-09T07:46:52.908Z,98.52
2018-04-09T07:47:52.930Z,97.85
2018-04-09T07:48:52.958Z,98.43
2018-04-09T07:49:52.976Z,97.28
2018-04-09T07:50:52.998Z,97.38
2018-04-09T07:51:53.021Z,98.43
2018-04-09T07:52:53.043Z,98.14
2018-04-09T07:53:53.065Z,98.33
2018-04-09T07:54:53.088Z,98.47
2018-04-09T07:55:53.109Z,97.33
2018-04-09T07:56:53.133Z,97.61
2018-04-09T07:57:53.155Z,97.47
2018-04-09T07:58:53.179Z,97.85
2018-04-09T07:59:53.218Z,98.43
2018-04-09T08:00:53.224Z,98.24
2018-04-09T08:01:53.248Z,98.43
2018-04-09T08:02:53.274Z,98.14
2018-04-09T08:03:53.290Z,98.24
2018-04-09T08:04:53.313Z,98.14
2018-04-09T08:05:53.337Z,97.66
2018-04-09T08:06:53.359Z,98.05
2018-04-09T08:07:53.381Z,98.05
2018-04-09T08:08:53.408Z,98.14
2018-04-09T08:09:53.427Z,98.52
2018-04-09T08:10:53.449Z,98.33
2018-04-09T08:11:53.471Z,98.38
2018-04-09T08:12:53.495Z,98.38
2018-04-09T08:13:53.518Z,98.00
2018-04-09T08:14:53.540Z,98.19
2018-04-09T08:15:53.562Z,98.57
2018-04-09T08:16:53.589Z,97.33
2018-04-09T08:17:53.608Z,97.52
2018-04-09T08:18:53.632Z,97.52
2018-04-09T08:19:53.653Z,97.90
2018-04-09T08:20:53.676Z,97.80
2018-04-09T08:21:53.699Z,97.80
2018-04-09T08:22:53.722Z,97.61
2018-04-09T08:23:53.744Z,97.47
2018-04-09T08:24:53.768Z,97.56
2018-04-09T08:25:53.792Z,97.47
2018-04-09T08:26:53.816Z,97.47
2018-04-09T08:27:53.835Z,97.47
2018-04-09T08:28:53.859Z,97.47
2018-04-09T08:29:53.883Z,97.76
2018-04-09T08:30:53.907Z,97.56
2018-04-09T08:31:53.929Z,97.28
2018-04-09T08:32:53.952Z,97.76
2018-04-09T08:33:54.038Z,97.76
2018-04-09T08:34:54.150Z,97.56
2018-04-09T08:35:54.100Z,97.71
2018-04-09T08:36:54.046Z,97.33
2018-04-09T08:37:54.069Z,96.94
2018-04-09T08:38:54.575Z,97.04
2018-04-09T08:39:54.116Z,96.94
2018-04-09T08:40:54.139Z,96.85
2018-04-09T08:41:54.163Z,97.23
2018-04-09T08:42:54.185Z,97.33
2018-04-09T08:43:54.208Z,97.71
2018-04-09T08:44:54.232Z,97.42
2018-04-09T08:45:54.256Z,96.85
2018-04-09T08:46:54.279Z,97.14
2018-04-09T08:47:54.304Z,97.23
2018-04-09T08:48:54.327Z,97.33
2018-04-09T08:49:54.358Z,97.23
2018-04-09T08:50:54.375Z,97.14
2018-04-09T08:51:54.397Z,97.14
2018-04-09T08:52:54.421Z,97.33
2018-04-09T08:53:54.447Z,97.14
2018-04-09T08:54:54.469Z,97.14
2018-04-09T08:55:54.492Z,97.19
2018-04-09T08:56:54.518Z,97.56
2018-04-09T08:57:54.543Z,97.14
2018-04-09T08:58:54.563Z,97.19
2018-04-09T08:59:54.586Z,96.85
2018-04-09T09:00:54.609Z,97.14
2018-04-09T09:01:54.639Z,97.14
2018-04-09T09:02:54.658Z,97.04
2018-04-09T09:03:54.680Z,96.99
2018-04-09T09:04:54.705Z,96.94
2018-04-09T09:05:54.728Z,97.14
2018-04-09T09:06:54.752Z,96.80
2018-04-09T09:07:54.775Z,96.61
2018-04-09T09:08:54.799Z,96.37
2018-04-09T09:09:54.823Z,97.14
2018-04-09T09:10:54.847Z,97.04
2018-04-09T09:11:54.871Z,97.14
2018-04-09T09:12:54.894Z,97.09
2018-04-09T09:13:54.926Z,96.94
2018-04-09T09:14:54.944Z,96.94
2018-04-09T09:15:54.964Z,97.19
2018-04-09T09:16:54.990Z,96.61
2018-04-09T09:17:55.014Z,96.61
2018-04-09T09:18:55.039Z,96.22
2018-04-09T09:19:55.060Z,96.13
2018-04-09T09:20:55.084Z,96.22
2018-04-09T09:21:55.116Z,96.51
2018-04-09T09:22:55.131Z,96.51
2018-04-09T09:23:55.156Z,96.42
2018-04-09T09:24:55.180Z,96.70
2018-04-09T09:25:55.292Z,96.51
2018-04-09T09:26:55.281Z,96.22
2018-04-09T09:27:55.254Z,96.13
2018-04-09T09:28:55.281Z,96.13
2018-04-09T09:29:55.300Z,96.61
2018-04-09T09:30:55.323Z,96.70
2018-04-09T09:31:55.347Z,96.13
2018-04-09T09:32:55.371Z,96.42
2018-04-09T09:33:55.395Z,96.03
2018-04-09T09:34:55.420Z,95.94
2018-04-09T09:35:55.442Z,96.13
2018-04-09T09:36:55.467Z,95.75
2018-04-09T09:37:55.490Z,95.17
2018-04-09T09:38:55.514Z,95.75
2018-04-09T09:39:55.538Z,95.55
2018-04-09T09:40:55.566Z,95.46
2018-04-09T09:41:55.586Z,95.17
2018-04-09T09:42:55.610Z,95.94
2018-04-09T09:43:55.634Z,95.84
2018-04-09T09:44:55.658Z,95.46
2018-04-09T09:45:55.683Z,95.41
2018-04-09T09:46:55.707Z,95.75
2018-04-09T09:47:55.729Z,95.75
2018-04-09T09:48:55.755Z,95.55
2018-04-09T09:49:55.778Z,95.75
2018-04-09T09:50:55.804Z,95.36
2018-04-09T09:51:55.832Z,95.55
2018-04-09T09:52:55.850Z,95.84
2018-04-09T09:53:55.875Z,95.75
2018-04-09T09:54:55.899Z,94.93
2018-04-09T09:55:55.925Z,94.93
2018-04-09T09:56:55.946Z,95.12
2018-04-09T09:57:55.975Z,94.64
2018-04-09T09:58:56.046Z,94.83
2018-04-09T09:59:56.019Z,95.31
2018-04-09T10:00:56.045Z,95.21
2018-04-09T10:01:56.219Z,94.74
2018-04-09T10:02:56.092Z,94.01
2018-04-09T10:03:56.116Z,93.63
2018-04-09T10:04:56.140Z,93.34
2018-04-09T10:05:56.172Z,92.19
2018-04-09T10:06:56.190Z,92.62
2018-04-09T10:07:56.213Z,91.95
2018-04-09T10:08:56.238Z,91.75
2018-04-09T10:09:56.262Z,91.08
2018-04-09T10:10:56.287Z,91.47
2018-04-09T10:11:56.312Z,91.75
2018-04-09T10:12:56.336Z,92.00
2018-04-09T10:13:56.361Z,92.38
2018-04-09T10:14:56.391Z,92.72
2018-04-09T10:15:56.409Z,92.05
2018-04-09T10:16:56.434Z,91.08
2018-04-09T10:17:56.460Z,91.08
2018-04-09T10:18:56.484Z,90.94
2018-04-09T10:19:56.509Z,91.47
2018-04-09T10:20:56.532Z,90.31
2018-04-09T10:21:56.558Z,90.22
2018-04-09T10:22:56.583Z,90.89
2018-04-09T10:23:56.612Z,90.89
2018-04-09T10:24:56.633Z,90.89
2018-04-09T10:25:56.658Z,90.65
2018-04-09T10:26:56.683Z,90.26
2018-04-09T10:27:56.709Z,90.55
2018-04-09T10:28:56.732Z,89.44
2018-04-09T10:29:56.762Z,88.82
2018-04-09T10:30:56.784Z,89.59
2018-04-09T10:31:56.807Z,89.36
2018-04-09T10:32:56.833Z,90.89
2018-04-09T10:33:56.859Z,91.37
2018-04-09T10:34:56.885Z,91.18
2018-04-09T10:35:56.907Z,90.99
2018-04-09T10:36:56.934Z,90.65
2018-04-09T10:37:56.959Z,90.17
2018-04-09T10:38:56.984Z,90.22
2018-04-09T10:39:57.009Z,90.26
2018-04-09T10:40:57.034Z,89.30
2018-04-09T10:41:57.059Z,90.03
2018-04-09T10:42:57.086Z,90.22
2018-04-09T10:43:57.112Z,90.89
2018-04-09T10:44:57.134Z,91.18
2018-04-09T10:45:57.161Z,90.99
2018-04-09T10:46:57.185Z,91.08
2018-04-09T10:47:57.210Z,91.28
2018-04-09T10:48:57.240Z,90.36
2018-04-09T10:49:57.260Z,89.50
2018-04-09T10:50:57.287Z,88.96
2018-04-09T10:51:57.309Z,88.44
2018-04-09T10:52:57.339Z,88.53
2018-04-09T10:53:57.360Z,88.92
2018-04-09T10:54:57.388Z,89.11
2018-04-09T10:55:57.410Z,88.92
2018-04-09T10:56:57.439Z,88.82
2018-04-09T10:57:57.462Z,88.73
2018-04-09T10:58:57.488Z,88.63
2018-04-09T10:59:57.511Z,88.67
2018-04-09T11:00:57.537Z,87.81
2018-04-09T11:01:57.564Z,88.00
2018-04-09T11:02:57.588Z,87.90
2018-04-09T11:03:57.674Z,88.24
2018-04-09T11:04:57.637Z,88.63
2018-04-09T11:05:57.662Z,88.19
2018-04-09T11:06:57.687Z,87.90
2018-04-09T11:07:57.712Z,88.00
2018-04-09T11:08:57.738Z,87.23
2018-04-09T11:09:57.763Z,87.23
2018-04-09T11:10:57.790Z,87.81
2018-04-09T11:11:57.814Z,87.13
2018-04-09T11:12:57.840Z,87.38
2018-04-09T11:13:57.864Z,87.96
2018-04-09T11:14:57.890Z,88.34
2018-04-09T11:15:57.915Z,88.06
2018-04-09T11:16:57.941Z,87.96
2018-04-09T11:17:57.966Z,87.96
2018-04-09T11:18:57.991Z,87.57
2018-04-09T11:19:58.015Z,87.67
2018-04-09T11:20:58.041Z,87.04
2018-04-09T11:21:58.066Z,86.94
2018-04-09T11:22:58.091Z,86.27
2018-04-09T11:23:58.116Z,85.69
2018-04-09T11:24:58.144Z,85.02
2018-04-09T11:25:58.167Z,84.06
2018-04-09T11:26:58.192Z,84.25
2018-04-09T11:27:58.216Z,84.25
2018-04-09T11:28:58.242Z,84.16
2018-04-09T11:29:58.268Z,84.63
2018-04-09T11:30:58.342Z,84.16
2018-04-09T11:31:58.317Z,83.58
2018-04-09T11:32:58.343Z,83.04
2018-04-09T11:33:58.368Z,82.75
2018-04-09T11:34:58.394Z,82.08
2018-04-09T11:35:58.418Z,81.98
2018-04-09T11:36:58.450Z,82.52
2018-04-09T11:37:58.476Z,82.52
2018-04-09T11:38:58.504Z,82.81
2018-04-09T11:39:58.526Z,82.65
2018-04-09T11:40:58.553Z,81.88
2018-04-09T11:41:58.578Z,82.32
2018-04-09T11:42:58.603Z,82.94
2018-04-09T11:43:58.628Z,82.56
2018-04-09T11:44:58.653Z,81.88
2018-04-09T11:45:58.681Z,81.88
2018-04-09T11:46:58.706Z,81.50
2018-04-09T11:47:58.730Z,81.70
2018-04-09T11:48:58.756Z,81.84
2018-04-09T11:49:58.783Z,82.81
2018-04-09T11:50:58.808Z,82.27
2018-04-09T11:51:58.833Z,81.94
2018-04-09T11:52:58.858Z,82.08
2018-04-09T11:53:58.884Z,81.21
2018-04-09T11:54:58.911Z,81.65
2018-04-09T11:55:58.935Z,81.70
2018-04-09T11:56:58.960Z,80.92
2018-04-09T11:58:59.013Z,79.96
2018-04-09T11:59:59.038Z,80.15
2018-04-09T12:00:59.064Z,80.63
2018-04-09T12:01:59.089Z,80.44
2018-04-09T12:02:59.116Z,81.02
2018-04-09T12:03:59.139Z,80.92
2018-04-09T12:04:59.166Z,80.19
2018-04-09T12:05:59.194Z,79.13
2018-04-09T12:06:59.220Z,79.13
2018-04-09T12:07:59.256Z,79.58
2018-04-09T12:08:59.269Z,80.63
2018-04-09T12:09:59.298Z,80.92
2018-04-09T12:10:59.321Z,80.92
2018-04-09T12:11:59.346Z,80.54
2018-04-09T12:12:59.374Z,81.40
2018-04-09T12:13:59.400Z,81.50
2018-04-09T12:14:59.428Z,80.83
2018-04-09T12:15:59.450Z,80.83
2018-04-09T12:16:59.477Z,80.15
2018-04-09T12:17:59.503Z,80.25
2018-04-09T12:18:59.529Z,80.83
2018-04-09T12:19:59.554Z,80.92
2018-04-09T12:20:59.580Z,80.35
2018-04-09T12:21:59.606Z,80.25
2018-04-09T12:22:59.632Z,79.67
2018-04-09T12:23:59.658Z,80.73
2018-04-09T12:24:59.685Z,81.02
2018-04-09T12:25:59.711Z,80.83
2018-04-09T12:26:59.786Z,81.02
2018-04-09T12:27:59.760Z,81.21
2018-04-09T12:28:59.789Z,81.50
2018-04-09T12:29:59.814Z,80.92
2018-04-09T12:30:59.840Z,81.12
2018-04-09T12:31:59.866Z,81.40
2018-04-09T12:32:59.891Z,81.70
2018-04-09T12:33:59.918Z,80.92
2018-04-09T12:34:59.943Z,80.44
2018-04-09T12:35:59.968Z,80.44
2018-04-09T12:36:59.993Z,81.02
2018-04-09T12:38:00.026Z,80.92
2018-04-09T12:39:00.047Z,80.19
2018-04-09T12:40:00.080Z,80.19
2018-04-09T12:41:00.097Z,79.13
2018-04-09T12:42:00.122Z,79.66
2018-04-09T12:43:00.149Z,78.11
2018-04-09T12:44:00.174Z,77.06
2018-04-09T12:45:00.200Z,76.57
2018-04-09T12:46:00.226Z,76.38
2018-04-09T12:47:00.252Z,76.61
2018-04-09T12:48:00.277Z,76.18
2018-04-09T12:49:00.305Z,76.57
2018-04-09T12:50:00.331Z,76.67
2018-04-09T12:51:00.358Z,76.57
2018-04-09T12:52:00.382Z,76.28
2018-04-09T12:53:00.408Z,76.42
2018-04-09T12:54:00.434Z,75.55
2018-04-09T12:55:00.461Z,75.80
2018-04-09T12:56:00.486Z,76.48
2018-04-09T12:57:00.512Z,75.99
2018-04-09T12:58:00.535Z,75.61
2018-04-09T12:59:00.560Z,75.32
2018-04-09T13:00:00.585Z,74.10
2018-04-09T13:01:40.110Z,73.53
2018-04-09T13:02:40.137Z,73.72
2018-04-09T13:03:40.162Z,73.97
2018-04-09T13:04:40.188Z,75.13
2018-04-09T13:05:40.214Z,75.42
2018-04-09T13:06:40.242Z,75.23
2018-04-09T13:07:40.286Z,75.90
2018-04-09T13:08:40.293Z,76.09
2018-04-09T13:09:40.320Z,75.71